createdAt,value
2023-02-24T00:02:06.499Z,1004.4
2023-02-24T00:05:06.424Z,1004.3
2023-02-24T00:08:06.426Z,1004.3
2023-02-24T00:11:06.422Z,1004.3
2023-02-24T00:14:06.427Z,1004.3
2023-02-24T00:17:06.697Z,1004.3
2023-02-24T00:20:06.427Z,1004.3
2023-02-24T00:23:06.425Z,1004.3
2023-02-24T00:26:06.431Z,1004.3
2023-02-24T00:29:06.433Z,1004.3
2023-02-24T00:32:06.724Z,1004.1
2023-02-24T00:35:06.466Z,1004.1
2023-02-24T00:38:06.455Z,1004
2023-02-24T00:41:06.446Z,1003.9
2023-02-24T00:44:06.447Z,1004
2023-02-24T00:47:06.453Z,1004
2023-02-24T00:50:06.456Z,1003.8
2023-02-24T00:53:06.481Z,1003.8
2023-02-24T00:56:06.458Z,1003.8
2023-02-24T00:59:06.460Z,1003.7
2023-02-24T01:02:06.467Z,1003.7
2023-02-24T01:05:06.466Z,1003.8
2023-02-24T01:08:06.471Z,1003.8
2023-02-24T01:11:06.488Z,1003.7
2023-02-24T01:14:06.479Z,1003.7
2023-02-24T01:17:06.471Z,1003.7
2023-02-24T01:20:06.466Z,1003.7
2023-02-24T01:23:06.471Z,1003.6
2023-02-24T01:26:06.478Z,1003.6
2023-02-24T01:29:06.497Z,1003.6
2023-02-24T01:32:06.562Z,1003.6
2023-02-24T01:35:06.478Z,1003.5
2023-02-24T01:38:06.480Z,1003.5
2023-02-24T01:41:06.485Z,1003.5
2023-02-24T01:44:06.499Z,1003.4
2023-02-24T01:47:06.548Z,1003.4
2023-02-24T01:50:06.488Z,1003.3
2023-02-24T01:53:06.514Z,1003.3
2023-02-24T01:56:06.497Z,1003.1
2023-02-24T01:59:06.501Z,1003.1
2023-02-24T02:02:06.600Z,1003.2
2023-02-24T02:05:06.527Z,1003.2
2023-02-24T02:08:06.505Z,1003.1
2023-02-24T02:11:06.516Z,1003.1
2023-02-24T02:14:06.503Z,1003.1
2023-02-24T02:17:06.501Z,1003
2023-02-24T02:20:06.611Z,1003
2023-02-24T02:23:06.534Z,1003
2023-02-24T02:26:06.512Z,1002.9
2023-02-24T02:29:06.510Z,1002.9
2023-02-24T02:32:06.592Z,1002.8
2023-02-24T02:35:06.524Z,1002.8
2023-02-24T02:38:06.531Z,1002.7
2023-02-24T02:41:06.544Z,1002.6
2023-02-24T02:44:06.522Z,1002.5
2023-02-24T02:47:06.518Z,1002.5
2023-02-24T02:50:06.517Z,1002.5
2023-02-24T02:53:06.522Z,1002.5
2023-02-24T02:56:06.532Z,1002.5
2023-02-24T02:59:06.545Z,1002.5
2023-02-24T03:02:06.521Z,1002.4
2023-02-24T03:05:06.579Z,1002.4
2023-02-24T03:08:06.530Z,1002.4
2023-02-24T03:11:06.530Z,1002.3
2023-02-24T03:14:06.547Z,1002.3
2023-02-24T03:17:06.560Z,1002.3
2023-02-24T03:20:06.540Z,1002.2
2023-02-24T03:23:06.547Z,1002.2
2023-02-24T03:26:06.549Z,1002.1
2023-02-24T03:29:06.545Z,1002.1
2023-02-24T03:32:06.626Z,1002
2023-02-24T03:35:06.579Z,1002
2023-02-24T03:38:06.622Z,1001.9
2023-02-24T03:41:06.563Z,1001.9
2023-02-24T03:44:06.563Z,1001.9
2023-02-24T03:47:06.567Z,1001.9
2023-02-24T03:50:06.568Z,1001.8
2023-02-24T03:53:06.590Z,1001.8
2023-02-24T03:56:06.571Z,1001.7
2023-02-24T03:59:06.575Z,1001.6
2023-02-24T04:02:06.654Z,1001.6
2023-02-24T04:05:06.649Z,1001.5
2023-02-24T04:08:06.579Z,1001.5
2023-02-24T04:11:06.606Z,1001.6
2023-02-24T04:14:06.699Z,1001.6
2023-02-24T04:17:06.601Z,1001.6
2023-02-24T04:20:06.596Z,1001.3
2023-02-24T04:23:06.595Z,1001.4
2023-02-24T04:26:06.635Z,1001.4
2023-02-24T04:29:06.634Z,1001.4
2023-02-24T04:32:06.754Z,1001.3
2023-02-24T04:35:06.610Z,1001.2
2023-02-24T04:38:06.611Z,1001.2
2023-02-24T04:41:06.612Z,1001.2
2023-02-24T04:44:06.620Z,1001.1
2023-02-24T04:47:06.642Z,1001.2
2023-02-24T04:50:06.631Z,1001.1
2023-02-24T04:53:06.645Z,1001
2023-02-24T04:56:06.626Z,1001
2023-02-24T04:59:06.639Z,1000.9
2023-02-24T05:02:06.637Z,1000.8
2023-02-24T05:05:06.666Z,1000.8
2023-02-24T05:08:06.645Z,1000.8
2023-02-24T05:11:06.652Z,1000.7
2023-02-24T05:14:06.649Z,1000.7
2023-02-24T05:17:06.651Z,1000.6
2023-02-24T05:20:06.662Z,1000.6
2023-02-24T05:23:06.698Z,1000.4
2023-02-24T05:26:06.668Z,1000.3
2023-02-24T05:29:06.676Z,1000.5
2023-02-24T05:32:06.824Z,1000.5
2023-02-24T05:35:06.681Z,1000.4
2023-02-24T05:38:06.691Z,1000.3
2023-02-24T05:41:06.711Z,1000.1
2023-02-24T05:44:06.695Z,1000
2023-02-24T05:47:06.702Z,999.9
2023-02-24T05:50:06.698Z,999.8
2023-02-24T05:53:06.769Z,999.7
2023-02-24T05:56:06.704Z,999.9
2023-02-24T05:59:06.730Z,999.8
2023-02-24T06:02:06.751Z,999.7
2023-02-24T06:05:06.711Z,999.7
2023-02-24T06:08:06.716Z,999.7
2023-02-24T06:11:06.715Z,999.7
2023-02-24T06:14:06.719Z,999.7
2023-02-24T06:17:06.744Z,999.4
2023-02-24T06:20:06.726Z,999.5
2023-02-24T06:23:06.731Z,999.4
2023-02-24T06:26:06.731Z,999.3
2023-02-24T06:29:06.737Z,999.3
2023-02-24T06:32:06.772Z,999.4
2023-02-24T06:35:06.769Z,999.3
2023-02-24T06:38:06.749Z,999.3
2023-02-24T06:41:06.759Z,999.2
2023-02-24T06:44:06.758Z,999.2
2023-02-24T06:47:06.769Z,999.2
2023-02-24T06:50:06.791Z,999
2023-02-24T06:53:06.796Z,998.9
2023-02-24T06:56:06.780Z,998.8
2023-02-24T06:59:06.789Z,998.9
2023-02-24T07:02:06.792Z,998.8
2023-02-24T07:05:06.797Z,998.7
2023-02-24T07:08:06.802Z,998.8
2023-02-24T07:11:06.830Z,998.7
2023-02-24T07:14:06.809Z,998.8
2023-02-24T07:17:06.812Z,998.7
2023-02-24T07:20:06.821Z,998.7
2023-02-24T07:23:06.841Z,998.7
2023-02-24T07:26:06.832Z,998.6
2023-02-24T07:29:06.863Z,998.6
2023-02-24T07:32:07.071Z,998.6
2023-02-24T07:35:06.850Z,998.5
2023-02-24T07:38:06.849Z,998.5
2023-02-24T07:41:06.869Z,998.3
2023-02-24T07:44:06.861Z,998.3
2023-02-24T07:47:07.061Z,998.3
2023-02-24T07:50:06.866Z,998.1
2023-02-24T07:53:06.872Z,998.2
2023-02-24T07:56:06.883Z,998.1
2023-02-24T07:59:06.882Z,997.9
2023-02-24T08:02:06.912Z,998
2023-02-24T08:05:07.007Z,998
2023-02-24T08:08:06.893Z,997.8
2023-02-24T08:11:06.902Z,997.8
2023-02-24T08:14:06.912Z,997.8
2023-02-24T08:17:06.912Z,997.8
2023-02-24T08:20:07.956Z,997.7
2023-02-24T08:23:06.951Z,997.6
2023-02-24T08:26:06.954Z,997.6
2023-02-24T08:29:06.938Z,997.6
2023-02-24T08:32:07.111Z,997.5
2023-02-24T08:35:06.945Z,997.4
2023-02-24T08:38:06.952Z,997.4
2023-02-24T08:41:06.997Z,997.4
2023-02-24T08:44:06.970Z,997.4
2023-02-24T08:47:06.973Z,997.2
2023-02-24T08:50:06.976Z,997.2
2023-02-24T08:53:06.993Z,997.1
2023-02-24T08:56:06.991Z,997.1
2023-02-24T08:59:07.023Z,997.1
2023-02-24T09:02:07.005Z,997
2023-02-24T09:05:07.081Z,997
2023-02-24T09:08:07.019Z,997
2023-02-24T09:11:07.026Z,996.9
2023-02-24T09:14:12.857Z,997
2023-02-24T09:17:07.346Z,996.8
2023-02-24T09:20:07.051Z,996.7
2023-02-24T09:23:07.052Z,996.7
2023-02-24T09:26:07.145Z,996.7
2023-02-24T09:29:07.054Z,996.7
2023-02-24T09:32:07.305Z,996.8
2023-02-24T09:35:07.095Z,996.8
2023-02-24T09:38:07.090Z,996.6
2023-02-24T09:41:18.207Z,996.6
2023-02-24T09:44:07.092Z,996.7
2023-02-24T09:47:07.099Z,996.6
2023-02-24T09:50:07.113Z,996.6
2023-02-24T09:53:11.401Z,996.6
2023-02-24T09:56:07.122Z,996.4
2023-02-24T09:59:07.125Z,996.3
2023-02-24T10:02:07.196Z,996.4
2023-02-24T10:05:07.430Z,996.4
2023-02-24T10:08:07.142Z,996.3
2023-02-24T10:11:07.312Z,996.3
2023-02-24T10:14:07.252Z,996.3
2023-02-24T10:17:07.166Z,996.2
2023-02-24T10:20:07.171Z,996
2023-02-24T10:23:07.196Z,996.1
2023-02-24T10:26:07.537Z,996.1
2023-02-24T10:29:07.218Z,995.9
2023-02-24T10:32:07.388Z,995.9
2023-02-24T10:35:07.213Z,995.9
2023-02-24T10:38:07.226Z,995.9
2023-02-24T10:41:07.222Z,995.9
2023-02-24T10:44:07.232Z,995.8
2023-02-24T10:47:07.268Z,995.8
2023-02-24T10:50:07.250Z,995.7
2023-02-24T10:53:07.261Z,995.7
2023-02-24T10:56:07.265Z,995.6
2023-02-24T10:59:07.277Z,995.6
2023-02-24T11:02:07.331Z,995.5
2023-02-24T11:05:07.325Z,995.5
2023-02-24T11:08:07.316Z,995.4
2023-02-24T11:11:07.383Z,995.3
2023-02-24T11:14:07.321Z,995.1
2023-02-24T11:17:07.320Z,995.1
2023-02-24T11:20:07.324Z,995
2023-02-24T11:23:07.353Z,994.9
2023-02-24T11:26:07.332Z,994.9
2023-02-24T11:29:07.345Z,994.8
2023-02-24T11:32:07.423Z,994.6
2023-02-24T11:35:07.366Z,994.6
2023-02-24T11:38:07.369Z,994.5
2023-02-24T11:41:07.386Z,994.4
2023-02-24T11:44:07.401Z,994.3
2023-02-24T11:47:07.378Z,994.3
2023-02-24T11:50:07.379Z,994.2
2023-02-24T11:53:07.382Z,994.1
2023-02-24T11:56:07.387Z,994.1
2023-02-24T11:59:07.416Z,994
2023-02-24T12:02:07.398Z,994
2023-02-24T12:05:07.400Z,993.9
2023-02-24T12:08:07.409Z,993.8
2023-02-24T12:11:07.408Z,993.8
2023-02-24T12:14:07.416Z,993.8
2023-02-24T12:17:07.443Z,993.6
2023-02-24T12:20:07.423Z,993.7
2023-02-24T12:23:07.421Z,993.6
2023-02-24T12:26:07.426Z,993.6
2023-02-24T12:29:07.434Z,993.4
2023-02-24T12:32:07.501Z,993.4
2023-02-24T12:35:07.511Z,993.4
2023-02-24T12:38:07.434Z,993.3
2023-02-24T12:41:07.438Z,993.3
2023-02-24T12:44:07.445Z,993.3
2023-02-24T12:47:07.436Z,993.4
2023-02-24T12:50:07.440Z,993.2
2023-02-24T12:53:07.477Z,993.2
2023-02-24T12:56:07.461Z,993.2
2023-02-24T12:59:07.545Z,993.1
2023-02-24T13:02:07.479Z,993.1
2023-02-24T13:05:09.268Z,992.9
2023-02-24T13:08:07.452Z,992.8
2023-02-24T13:11:07.472Z,992.8
2023-02-24T13:14:07.453Z,992.8
2023-02-24T13:17:07.460Z,992.7
2023-02-24T13:20:07.464Z,992.7
2023-02-24T13:23:07.473Z,992.6
2023-02-24T13:26:07.476Z,992.6
2023-02-24T13:29:07.513Z,992.6
2023-02-24T13:32:07.586Z,992.4
2023-02-24T13:35:07.501Z,992.4
2023-02-24T13:38:07.514Z,992.4
2023-02-24T13:41:07.528Z,992.2
2023-02-24T13:44:07.535Z,992.3
2023-02-24T13:47:07.566Z,992.3
2023-02-24T13:50:07.549Z,992.3
2023-02-24T13:53:07.566Z,992.2
2023-02-24T13:56:07.576Z,992.2
2023-02-24T13:59:07.580Z,992.1
2023-02-24T14:02:07.616Z,992.1
2023-02-24T14:05:07.743Z,992
2023-02-24T14:08:07.618Z,992.1
2023-02-24T14:11:07.656Z,992
2023-02-24T14:14:07.633Z,991.9
2023-02-24T14:17:07.639Z,991.9
2023-02-24T14:20:07.827Z,992
2023-02-24T14:23:07.715Z,991.9
2023-02-24T14:26:07.669Z,991.8
2023-02-24T14:29:07.686Z,991.7
2023-02-24T14:32:07.823Z,991.9
2023-02-24T14:35:07.709Z,991.8
2023-02-24T14:38:07.719Z,991.8
2023-02-24T14:41:07.885Z,991.7
2023-02-24T14:44:07.740Z,991.5
2023-02-24T14:47:07.774Z,991.5
2023-02-24T14:50:07.766Z,991.5
2023-02-24T14:53:07.783Z,991.5
2023-02-24T14:56:07.930Z,991.3
2023-02-24T14:59:07.817Z,991.3
2023-02-24T15:02:07.801Z,991.3
2023-02-24T15:05:07.813Z,991.2
2023-02-24T15:08:07.828Z,991.2
2023-02-24T15:11:07.848Z,991.2
2023-02-24T15:14:07.894Z,991.1
2023-02-24T15:17:07.895Z,991.1
2023-02-24T15:20:07.882Z,990.9
2023-02-24T15:23:07.894Z,990.9
2023-02-24T15:26:07.908Z,990.9
2023-02-24T15:29:07.925Z,991
2023-02-24T15:32:08.075Z,990.9
2023-02-24T15:35:08.020Z,990.7
2023-02-24T15:38:07.963Z,990.8
2023-02-24T15:41:07.962Z,990.7
2023-02-24T15:44:07.977Z,990.7
2023-02-24T15:47:08.067Z,990.7
2023-02-24T15:50:07.990Z,990.7
2023-02-24T15:53:08.023Z,990.6
2023-02-24T15:56:08.006Z,990.6
2023-02-24T15:59:08.018Z,990.3
2023-02-24T16:02:08.040Z,990.5
2023-02-24T16:05:08.030Z,990.4
2023-02-24T16:08:08.041Z,990.3
2023-02-24T16:11:08.071Z,990.3
2023-02-24T16:14:08.054Z,990.3
2023-02-24T16:17:08.060Z,990.3
2023-02-24T16:20:08.071Z,990.3
2023-02-24T16:23:08.086Z,990.3
2023-02-24T16:26:08.080Z,990.1
2023-02-24T16:29:08.106Z,990.1
2023-02-24T16:32:08.218Z,990.2
2023-02-24T16:35:08.096Z,990.2
2023-02-24T16:38:08.106Z,990.2
2023-02-24T16:41:08.107Z,990.2
2023-02-24T16:44:08.127Z,990.2
2023-02-24T16:47:08.147Z,990.2
2023-02-24T16:50:08.130Z,990.2
2023-02-24T16:53:08.134Z,990.2
2023-02-24T16:56:08.138Z,990.2
2023-02-24T16:59:08.150Z,990.2
2023-02-24T17:02:08.153Z,990.2
2023-02-24T17:05:08.174Z,990
2023-02-24T17:08:08.163Z,990
2023-02-24T17:11:08.160Z,990
2023-02-24T17:14:08.178Z,990
2023-02-24T17:17:08.247Z,989.7
2023-02-24T17:20:08.200Z,989.7
2023-02-24T17:23:08.205Z,989.7
2023-02-24T17:26:08.194Z,989.8
2023-02-24T17:29:08.207Z,989.7
2023-02-24T17:32:08.453Z,989.7
2023-02-24T17:35:08.214Z,989.6
2023-02-24T17:38:08.218Z,989.6
2023-02-24T17:41:08.246Z,989.7
2023-02-24T17:44:08.221Z,989.6
2023-02-24T17:47:08.228Z,989.6
2023-02-24T17:50:08.226Z,989.5
2023-02-24T17:53:08.235Z,989.6
2023-02-24T17:56:08.239Z,989.5
2023-02-24T17:59:08.274Z,989.5
2023-02-24T18:02:08.273Z,989.5
2023-02-24T18:05:08.245Z,989.6
2023-02-24T18:08:08.246Z,989.6
2023-02-24T18:11:08.261Z,989.6
2023-02-24T18:14:08.266Z,989.5
2023-02-24T18:17:08.287Z,989.5
2023-02-24T18:20:08.268Z,989.6
2023-02-24T18:23:08.283Z,989.4
2023-02-24T18:26:08.279Z,989.3
2023-02-24T18:29:08.284Z,989.3
2023-02-24T18:32:08.418Z,989.4
2023-02-24T18:35:08.308Z,989.4
2023-02-24T18:38:08.293Z,989.5
2023-02-24T18:41:08.299Z,989.5
2023-02-24T18:44:08.344Z,989.6
2023-02-24T18:47:08.306Z,989.6
2023-02-24T18:50:08.313Z,989.5
2023-02-24T18:53:08.344Z,989.5
2023-02-24T18:56:08.322Z,989.5
2023-02-24T18:59:08.331Z,989.4
2023-02-24T19:02:08.347Z,989.4
2023-02-24T19:05:08.474Z,989.5
2023-02-24T19:08:08.342Z,989.6
2023-02-24T19:11:08.370Z,989.5
2023-02-24T19:14:09.864Z,989.5
2023-02-24T19:17:08.361Z,989.5
2023-02-24T19:20:08.355Z,989.5
2023-02-24T19:23:08.361Z,989.4
2023-02-24T19:26:08.360Z,989.3
2023-02-24T19:29:08.387Z,989.3
2023-02-24T19:32:08.533Z,989.3
2023-02-24T19:35:08.368Z,989.3
2023-02-24T19:38:08.410Z,989.5
2023-02-24T19:41:08.386Z,989.4
2023-02-24T19:44:08.382Z,989.4
2023-02-24T19:47:08.413Z,989.4
2023-02-24T19:50:08.391Z,989.2
2023-02-24T19:53:08.424Z,989.4
2023-02-24T19:56:08.399Z,989.4
2023-02-24T19:59:08.415Z,989.4
2023-02-24T20:02:08.417Z,989.5
2023-02-24T20:05:08.511Z,989.4
2023-02-24T20:08:08.430Z,989.4
2023-02-24T20:11:08.460Z,989.3
2023-02-24T20:14:08.462Z,989.3
2023-02-24T20:17:08.506Z,989.3
2023-02-24T20:20:08.446Z,989.4
2023-02-24T20:23:08.467Z,989.4
2023-02-24T20:26:08.452Z,989.5
2023-02-24T20:29:08.452Z,989.5
2023-02-24T20:32:08.639Z,989.5
2023-02-24T20:35:08.540Z,989.5
2023-02-24T20:38:08.478Z,989.6
2023-02-24T20:41:08.503Z,989.6
2023-02-24T20:44:08.476Z,989.6
2023-02-24T20:47:08.486Z,989.6
2023-02-24T20:50:08.489Z,989.4
2023-02-24T20:53:08.492Z,989.6
2023-02-24T20:56:08.499Z,989.5
2023-02-24T20:59:08.557Z,989.5
2023-02-24T21:02:08.503Z,989.4
2023-02-24T21:05:08.549Z,989.5
2023-02-24T21:08:08.545Z,989.5
2023-02-24T21:11:10.922Z,989.5
2023-02-24T21:14:08.524Z,989.5
2023-02-24T21:17:08.552Z,989.5
2023-02-24T21:20:08.529Z,989.4
2023-02-24T21:23:08.534Z,989.4
2023-02-24T21:26:08.542Z,989.4
2023-02-24T21:29:08.532Z,989.4
2023-02-24T21:32:08.596Z,989.4
2023-02-24T21:35:08.564Z,989.4
2023-02-24T21:38:08.549Z,989.4
2023-02-24T21:41:08.570Z,989.4
2023-02-24T21:44:08.555Z,989.4
2023-02-24T21:47:08.561Z,989.3
2023-02-24T21:50:08.564Z,989.4
2023-02-24T21:53:08.680Z,989.4
2023-02-24T21:56:08.567Z,989.2
2023-02-24T21:59:08.569Z,989.4
2023-02-24T22:02:08.575Z,989.2
2023-02-24T22:05:08.579Z,989.2
2023-02-24T22:08:08.583Z,989.3
2023-02-24T22:11:08.643Z,989.2
2023-02-24T22:14:08.599Z,989.2
2023-02-24T22:17:08.612Z,989.3
2023-02-24T22:20:08.608Z,989.3
2023-02-24T22:23:08.617Z,989.3
2023-02-24T22:26:08.622Z,989.3
2023-02-24T22:29:08.659Z,989.3
2023-02-24T22:32:08.757Z,989.2
2023-02-24T22:35:08.642Z,989
2023-02-24T22:38:08.644Z,989.1
2023-02-24T22:41:08.652Z,989.1
2023-02-24T22:44:08.665Z,989.1
2023-02-24T22:47:08.759Z,989.1
2023-02-24T22:50:08.665Z,989.1
2023-02-24T22:53:08.665Z,989.3
2023-02-24T22:56:08.669Z,989.1
2023-02-24T22:59:08.692Z,989.2
2023-02-24T23:02:08.671Z,989.2
2023-02-24T23:05:08.703Z,989.1
2023-02-24T23:08:08.675Z,989.1
2023-02-24T23:11:08.677Z,989.1
2023-02-24T23:14:08.685Z,989
2023-02-24T23:17:08.695Z,989
2023-02-24T23:20:08.696Z,989.1
2023-02-24T23:23:08.739Z,989.1
2023-02-24T23:26:08.707Z,989.1
2023-02-24T23:29:08.705Z,989.1
2023-02-24T23:32:08.792Z,989.1
2023-02-24T23:35:08.722Z,989.2
2023-02-24T23:38:08.717Z,989.2
2023-02-24T23:41:08.754Z,989.3
2023-02-24T23:44:08.742Z,989.4
2023-02-24T23:47:08.748Z,989.5
2023-02-24T23:50:08.752Z,989.3
2023-02-24T23:53:08.757Z,989.6
2023-02-24T23:56:08.770Z,989.5
2023-02-24T23:59:08.796Z,989.6
